sensor_id;sensor_type;location;lat;lon;timestamp;temperature;humidity
20045;DHT22;10183;47.808;9.476;2022-11-03T00:00:09;3.80;99.90
20045;DHT22;10183;47.808;9.476;2022-11-03T00:02:35;3.90;99.90
20045;DHT22;10183;47.808;9.476;2022-11-03T00:05:01;4.00;99.90
20045;DHT22;10183;47.808;9.476;2022-11-03T00:07:48;3.80;99.90
20045;DHT22;10183;47.808;9.476;2022-11-03T00:10:14;3.80;99.90
20045;DHT22;10183;47.808;9.476;2022-11-03T00:12:40;3.80;99.90
20045;DHT22;10183;47.808;9.476;2022-11-03T00:15:06;3.80;99.90
20045;DHT22;10183;47.808;9.476;2022-11-03T00:17:33;3.90;99.90
20045;DHT22;10183;47.808;9.476;2022-11-03T00:19:59;3.90;99.90
20045;DHT22;10183;47.808;9.476;2022-11-03T00:22:25;4.00;99.90
20045;DHT22;10183;47.808;9.476;2022-11-03T00:24:51;4.10;99.90
20045;DHT22;10183;47.808;9.476;2022-11-03T00:27:17;4.00;99.90
20045;DHT22;10183;47.808;9.476;2022-11-03T00:29:43;4.10;99.90
20045;DHT22;10183;47.808;9.476;2022-11-03T00:32:09;4.10;99.90
20045;DHT22;10183;47.808;9.476;2022-11-03T00:34:36;4.00;99.90
20045;DHT22;10183;47.808;9.476;2022-11-03T00:37:02;4.00;99.90
20045;DHT22;10183;47.808;9.476;2022-11-03T00:39:28;4.00;99.90
20045;DHT22;10183;47.808;9.476;2022-11-03T00:41:54;4.10;99.90
20045;DHT22;10183;47.808;9.476;2022-11-03T00:44:20;4.20;99.90
20045;DHT22;10183;47.808;9.476;2022-11-03T00:46:46;4.30;99.90
20045;DHT22;10183;47.808;9.476;2022-11-03T00:49:12;4.40;99.90
20045;DHT22;10183;47.808;9.476;2022-11-03T00:51:38;4.30;99.90
20045;DHT22;10183;47.808;9.476;2022-11-03T00:54:05;4.20;99.90
20045;DHT22;10183;47.808;9.476;2022-11-03T00:56:37;4.20;99.90
20045;DHT22;10183;47.808;9.476;2022-11-03T00:59:06;4.00;99.90
20045;DHT22;10183;47.808;9.476;2022-11-03T01:01:36;4.00;99.90
20045;DHT22;10183;47.808;9.476;2022-11-03T01:04:02;3.80;99.90
20045;DHT22;10183;47.808;9.476;2022-11-03T01:06:49;3.70;99.90
20045;DHT22;10183;47.808;9.476;2022-11-03T01:09:29;3.60;99.90
20045;DHT22;10183;47.808;9.476;2022-11-03T01:12:03;3.50;99.90
20045;DHT22;10183;47.808;9.476;2022-11-03T01:14:40;3.50;99.90
20045;DHT22;10183;47.808;9.476;2022-11-03T01:17:09;3.60;99.90
20045;DHT22;10183;47.808;9.476;2022-11-03T01:19:36;3.60;99.90
20045;DHT22;10183;47.808;9.476;2022-11-03T01:22:02;3.60;99.90
20045;DHT22;10183;47.808;9.476;2022-11-03T01:24:28;3.70;99.90
20045;DHT22;10183;47.808;9.476;2022-11-03T01:26:54;3.70;99.90
20045;DHT22;10183;47.808;9.476;2022-11-03T01:29:20;3.60;99.90
20045;DHT22;10183;47.808;9.476;2022-11-03T01:31:47;3.50;99.90
20045;DHT22;10183;47.808;9.476;2022-11-03T01:34:16;3.60;99.90
20045;DHT22;10183;47.808;9.476;2022-11-03T01:36:43;3.60;99.90
20045;DHT22;10183;47.808;9.476;2022-11-03T01:39:11;3.70;99.90
20045;DHT22;10183;47.808;9.476;2022-11-03T01:41:38;3.80;99.90
20045;DHT22;10183;47.808;9.476;2022-11-03T01:47:08;3.90;99.90
20045;DHT22;10183;47.808;9.476;2022-11-03T01:52:15;3.90;99.90
20045;DHT22;10183;47.808;9.476;2022-11-03T01:54:45;3.90;99.90
20045;DHT22;10183;47.808;9.476;2022-11-03T01:57:16;4.00;99.90
20045;DHT22;10183;47.808;9.476;2022-11-03T01:59:44;3.90;99.90
20045;DHT22;10183;47.808;9.476;2022-11-03T02:02:12;3.80;99.90
20045;DHT22;10183;47.808;9.476;2022-11-03T02:04:38;3.70;99.90
20045;DHT22;10183;47.808;9.476;2022-11-03T02:07:37;3.60;99.90
20045;DHT22;10183;47.808;9.476;2022-11-03T02:10:06;3.70;99.90
20045;DHT22;10183;47.808;9.476;2022-11-03T02:12:34;3.70;99.90
20045;DHT22;10183;47.808;9.476;2022-11-03T02:15:07;3.70;99.90
20045;DHT22;10183;47.808;9.476;2022-11-03T02:17:36;3.70;99.90
20045;DHT22;10183;47.808;9.476;2022-11-03T02:20:06;3.70;99.90
20045;DHT22;10183;47.808;9.476;2022-11-03T02:25:46;3.60;99.90
20045;DHT22;10183;47.808;9.476;2022-11-03T02:28:16;3.50;99.90
20045;DHT22;10183;47.808;9.476;2022-11-03T02:36:29;3.40;99.90
20045;DHT22;10183;47.808;9.476;2022-11-03T02:39:10;3.30;99.90
20045;DHT22;10183;47.808;9.476;2022-11-03T02:41:38;3.30;99.90
20045;DHT22;10183;47.808;9.476;2022-11-03T02:44:10;3.30;99.90
20045;DHT22;10183;47.808;9.476;2022-11-03T02:46:38;3.30;99.90
20045;DHT22;10183;47.808;9.476;2022-11-03T02:49:05;3.30;99.90
20045;DHT22;10183;47.808;9.476;2022-11-03T02:51:32;3.30;99.90
20045;DHT22;10183;47.808;9.476;2022-11-03T02:54:09;3.30;99.90
20045;DHT22;10183;47.808;9.476;2022-11-03T02:56:49;3.40;99.90
20045;DHT22;10183;47.808;9.476;2022-11-03T02:59:25;3.50;99.90
20045;DHT22;10183;47.808;9.476;2022-11-03T03:01:58;3.60;99.90
20045;DHT22;10183;47.808;9.476;2022-11-03T03:04:34;3.60;99.90
20045;DHT22;10183;47.808;9.476;2022-11-03T03:07:05;3.60;99.90
20045;DHT22;10183;47.808;9.476;2022-11-03T03:09:50;3.60;99.90
20045;DHT22;10183;47.808;9.476;2022-11-03T03:12:19;3.50;99.90
20045;DHT22;10183;47.808;9.476;2022-11-03T03:14:47;3.50;99.90
20045;DHT22;10183;47.808;9.476;2022-11-03T03:17:22;3.50;99.90
20045;DHT22;10183;47.808;9.476;2022-11-03T03:19:59;3.40;99.90
20045;DHT22;10183;47.808;9.476;2022-11-03T03:27:57;3.30;99.90
20045;DHT22;10183;47.808;9.476;2022-11-03T03:30:24;3.30;99.90
20045;DHT22;10183;47.808;9.476;2022-11-03T03:32:51;3.20;99.90
20045;DHT22;10183;47.808;9.476;2022-11-03T03:35:22;3.30;99.90
20045;DHT22;10183;47.808;9.476;2022-11-03T03:37:51;3.40;99.90
20045;DHT22;10183;47.808;9.476;2022-11-03T03:40:31;3.40;99.90
20045;DHT22;10183;47.808;9.476;2022-11-03T03:43:00;3.40;99.90
20045;DHT22;10183;47.808;9.476;2022-11-03T03:45:29;3.30;99.90
20045;DHT22;10183;47.808;9.476;2022-11-03T03:47:57;3.20;99.90
20045;DHT22;10183;47.808;9.476;2022-11-03T03:50:25;3.20;99.90
20045;DHT22;10183;47.808;9.476;2022-11-03T03:53:00;3.20;99.90
20045;DHT22;10183;47.808;9.476;2022-11-03T03:55:36;3.20;99.90
20045;DHT22;10183;47.808;9.476;2022-11-03T03:58:04;3.20;99.90
20045;DHT22;10183;47.808;9.476;2022-11-03T04:00:31;3.30;99.90
20045;DHT22;10183;47.808;9.476;2022-11-03T04:02:58;3.40;99.90
20045;DHT22;10183;47.808;9.476;2022-11-03T04:05:25;3.40;99.90
20045;DHT22;10183;47.808;9.476;2022-11-03T04:07:51;3.30;99.90
20045;DHT22;10183;47.808;9.476;2022-11-03T04:10:20;3.30;99.90
20045;DHT22;10183;47.808;9.476;2022-11-03T04:12:46;3.30;99.90
20045;DHT22;10183;47.808;9.476;2022-11-03T04:15:31;3.20;99.90
20045;DHT22;10183;47.808;9.476;2022-11-03T04:18:17;3.20;99.90
20045;DHT22;10183;47.808;9.476;2022-11-03T04:21:03;3.20;99.90
20045;DHT22;10183;47.808;9.476;2022-11-03T04:23:48;3.20;99.90
20045;DHT22;10183;47.808;9.476;2022-11-03T04:26:17;3.20;99.90
20045;DHT22;10183;47.808;9.476;2022-11-03T04:28:44;3.10;99.90
20045;DHT22;10183;47.808;9.476;2022-11-03T04:31:15;3.10;99.90
20045;DHT22;10183;47.808;9.476;2022-11-03T04:33:42;2.90;99.90
20045;DHT22;10183;47.808;9.476;2022-11-03T04:36:19;2.90;99.90
20045;DHT22;10183;47.808;9.476;2022-11-03T04:38:46;2.80;99.90
20045;DHT22;10183;47.808;9.476;2022-11-03T04:41:24;2.70;99.90
20045;DHT22;10183;47.808;9.476;2022-11-03T04:43:51;2.70;99.90
20045;DHT22;10183;47.808;9.476;2022-11-03T04:46:27;2.80;99.90
20045;DHT22;10183;47.808;9.476;2022-11-03T04:48:57;2.90;99.90
20045;DHT22;10183;47.808;9.476;2022-11-03T04:51:27;3.00;99.90
20045;DHT22;10183;47.808;9.476;2022-11-03T04:54:00;3.00;99.90
20045;DHT22;10183;47.808;9.476;2022-11-03T04:56:27;3.10;99.90
20045;DHT22;10183;47.808;9.476;2022-11-03T04:58:54;3.10;99.90
20045;DHT22;10183;47.808;9.476;2022-11-03T05:01:21;3.20;99.90
20045;DHT22;10183;47.808;9.476;2022-11-03T05:03:49;3.30;99.90
20045;DHT22;10183;47.808;9.476;2022-11-03T05:06:19;3.40;99.90
20045;DHT22;10183;47.808;9.476;2022-11-03T05:08:50;3.50;99.90
20045;DHT22;10183;47.808;9.476;2022-11-03T05:11:30;3.50;99.90
20045;DHT22;10183;47.808;9.476;2022-11-03T05:14:21;3.40;99.90
20045;DHT22;10183;47.808;9.476;2022-11-03T05:16:49;3.40;99.90
20045;DHT22;10183;47.808;9.476;2022-11-03T05:19:36;3.50;99.90
20045;DHT22;10183;47.808;9.476;2022-11-03T05:22:04;3.60;99.90
20045;DHT22;10183;47.808;9.476;2022-11-03T05:24:31;3.60;99.90
20045;DHT22;10183;47.808;9.476;2022-11-03T05:26:59;3.70;99.90
20045;DHT22;10183;47.808;9.476;2022-11-03T05:31:55;3.60;99.90
20045;DHT22;10183;47.808;9.476;2022-11-03T05:34:36;3.40;99.90
20045;DHT22;10183;47.808;9.476;2022-11-03T05:37:19;3.40;99.90
20045;DHT22;10183;47.808;9.476;2022-11-03T05:39:48;3.40;99.90
20045;DHT22;10183;47.808;9.476;2022-11-03T05:42:38;3.40;99.90
20045;DHT22;10183;47.808;9.476;2022-11-03T05:47:45;3.50;99.90
20045;DHT22;10183;47.808;9.476;2022-11-03T05:50:22;3.70;99.90
20045;DHT22;10183;47.808;9.476;2022-11-03T05:55:41;3.90;99.90
20045;DHT22;10183;47.808;9.476;2022-11-03T05:58:21;4.10;99.90
20045;DHT22;10183;47.808;9.476;2022-11-03T06:00:48;4.10;99.90
20045;DHT22;10183;47.808;9.476;2022-11-03T06:03:27;4.10;99.90
20045;DHT22;10183;47.808;9.476;2022-11-03T06:05:54;4.00;99.90
20045;DHT22;10183;47.808;9.476;2022-11-03T06:08:26;3.70;99.90
20045;DHT22;10183;47.808;9.476;2022-11-03T06:10:57;3.80;99.90
20045;DHT22;10183;47.808;9.476;2022-11-03T06:16:02;3.70;99.90
20045;DHT22;10183;47.808;9.476;2022-11-03T06:18:33;3.70;99.90
20045;DHT22;10183;47.808;9.476;2022-11-03T06:21:10;3.70;99.90
20045;DHT22;10183;47.808;9.476;2022-11-03T06:23:38;3.60;99.90
20045;DHT22;10183;47.808;9.476;2022-11-03T06:26:17;3.60;99.90
20045;DHT22;10183;47.808;9.476;2022-11-03T06:28:44;3.50;99.90
20045;DHT22;10183;47.808;9.476;2022-11-03T06:31:21;3.60;99.90
20045;DHT22;10183;47.808;9.476;2022-11-03T06:33:49;3.60;99.90
20045;DHT22;10183;47.808;9.476;2022-11-03T06:36:22;3.70;99.90
20045;DHT22;10183;47.808;9.476;2022-11-03T06:38:54;3.70;99.90
20045;DHT22;10183;47.808;9.476;2022-11-03T06:41:27;3.80;99.90
20045;DHT22;10183;47.808;9.476;2022-11-03T06:43:55;3.80;99.90
20045;DHT22;10183;47.808;9.476;2022-11-03T06:46:24;4.00;99.90
20045;DHT22;10183;47.808;9.476;2022-11-03T06:48:57;4.10;99.90
20045;DHT22;10183;47.808;9.476;2022-11-03T06:51:28;4.20;99.90
20045;DHT22;10183;47.808;9.476;2022-11-03T06:53:59;4.30;99.90
20045;DHT22;10183;47.808;9.476;2022-11-03T06:56:30;4.30;99.90
20045;DHT22;10183;47.808;9.476;2022-11-03T06:59:00;4.20;99.90
20045;DHT22;10183;47.808;9.476;2022-11-03T07:01:31;4.20;99.90
20045;DHT22;10183;47.808;9.476;2022-11-03T07:04:07;4.30;99.90
20045;DHT22;10183;47.808;9.476;2022-11-03T07:06:37;4.40;99.90
20045;DHT22;10183;47.808;9.476;2022-11-03T07:09:06;4.50;99.90
20045;DHT22;10183;47.808;9.476;2022-11-03T07:11:45;4.30;99.90
20045;DHT22;10183;47.808;9.476;2022-11-03T07:14:17;4.50;99.90
20045;DHT22;10183;47.808;9.476;2022-11-03T07:16:47;4.70;99.90
20045;DHT22;10183;47.808;9.476;2022-11-03T07:19:22;4.90;99.90
20045;DHT22;10183;47.808;9.476;2022-11-03T07:21:58;5.10;99.90
20045;DHT22;10183;47.808;9.476;2022-11-03T07:24:27;5.20;99.90
20045;DHT22;10183;47.808;9.476;2022-11-03T07:32:40;5.40;99.90
20045;DHT22;10183;47.808;9.476;2022-11-03T07:37:48;5.60;99.90
20045;DHT22;10183;47.808;9.476;2022-11-03T07:40:18;5.70;99.90
20045;DHT22;10183;47.808;9.476;2022-11-03T07:42:46;5.70;99.90
20045;DHT22;10183;47.808;9.476;2022-11-03T07:45:37;5.70;99.90
20045;DHT22;10183;47.808;9.476;2022-11-03T07:48:42;5.80;99.90
20045;DHT22;10183;47.808;9.476;2022-11-03T07:51:21;5.70;99.90
20045;DHT22;10183;47.808;9.476;2022-11-03T07:53:51;5.70;99.90
20045;DHT22;10183;47.808;9.476;2022-11-03T07:58:51;5.60;99.90
20045;DHT22;10183;47.808;9.476;2022-11-03T08:01:28;5.70;99.90
20045;DHT22;10183;47.808;9.476;2022-11-03T08:04:02;5.50;99.90
20045;DHT22;10183;47.808;9.476;2022-11-03T08:06:30;5.30;99.90
20045;DHT22;10183;47.808;9.476;2022-11-03T08:08:57;5.50;99.90
20045;DHT22;10183;47.808;9.476;2022-11-03T08:11:23;5.60;99.90
20045;DHT22;10183;47.808;9.476;2022-11-03T08:13:50;5.80;99.90
20045;DHT22;10183;47.808;9.476;2022-11-03T08:16:17;5.90;99.90
20045;DHT22;10183;47.808;9.476;2022-11-03T08:18:43;6.00;99.90
20045;DHT22;10183;47.808;9.476;2022-11-03T08:21:10;6.10;99.90
20045;DHT22;10183;47.808;9.476;2022-11-03T08:23:36;6.20;99.90
20045;DHT22;10183;47.808;9.476;2022-11-03T08:26:02;6.30;99.90
20045;DHT22;10183;47.808;9.476;2022-11-03T08:28:29;6.50;99.90
20045;DHT22;10183;47.808;9.476;2022-11-03T08:30:55;6.60;99.90
20045;DHT22;10183;47.808;9.476;2022-11-03T08:33:30;6.30;99.90
20045;DHT22;10183;47.808;9.476;2022-11-03T08:35:57;6.30;99.90
20045;DHT22;10183;47.808;9.476;2022-11-03T08:38:24;6.40;99.90
20045;DHT22;10183;47.808;9.476;2022-11-03T08:40:50;6.60;99.90
20045;DHT22;10183;47.808;9.476;2022-11-03T08:43:16;6.60;99.90
20045;DHT22;10183;47.808;9.476;2022-11-03T08:45:42;6.60;99.90
20045;DHT22;10183;47.808;9.476;2022-11-03T08:48:09;6.70;99.90
20045;DHT22;10183;47.808;9.476;2022-11-03T08:50:35;6.80;99.90
20045;DHT22;10183;47.808;9.476;2022-11-03T08:53:01;6.60;99.90
20045;DHT22;10183;47.808;9.476;2022-11-03T08:55:27;6.50;99.90
20045;DHT22;10183;47.808;9.476;2022-11-03T08:57:53;6.60;99.90
20045;DHT22;10183;47.808;9.476;2022-11-03T09:00:19;6.80;99.90
20045;DHT22;10183;47.808;9.476;2022-11-03T09:02:47;7.00;99.90
20045;DHT22;10183;47.808;9.476;2022-11-03T09:05:14;7.10;99.90
20045;DHT22;10183;47.808;9.476;2022-11-03T09:07:40;7.40;99.90
20045;DHT22;10183;47.808;9.476;2022-11-03T09:10:08;7.70;99.90
20045;DHT22;10183;47.808;9.476;2022-11-03T09:12:35;7.90;99.90
20045;DHT22;10183;47.808;9.476;2022-11-03T09:15:02;8.00;99.90
20045;DHT22;10183;47.808;9.476;2022-11-03T09:17:28;8.20;99.90
20045;DHT22;10183;47.808;9.476;2022-11-03T09:19:54;8.40;99.90
20045;DHT22;10183;47.808;9.476;2022-11-03T09:22:21;8.40;99.90
20045;DHT22;10183;47.808;9.476;2022-11-03T09:24:47;7.60;99.90
20045;DHT22;10183;47.808;9.476;2022-11-03T09:27:13;7.60;99.90
20045;DHT22;10183;47.808;9.476;2022-11-03T09:29:40;7.70;99.90
20045;DHT22;10183;47.808;9.476;2022-11-03T09:32:06;7.80;99.90
20045;DHT22;10183;47.808;9.476;2022-11-03T09:34:33;8.20;99.90
20045;DHT22;10183;47.808;9.476;2022-11-03T09:37:00;8.60;99.90
20045;DHT22;10183;47.808;9.476;2022-11-03T09:39:26;8.70;99.90
20045;DHT22;10183;47.808;9.476;2022-11-03T09:41:55;9.00;99.90
20045;DHT22;10183;47.808;9.476;2022-11-03T09:44:23;9.30;99.90
20045;DHT22;10183;47.808;9.476;2022-11-03T09:46:50;8.80;99.90
20045;DHT22;10183;47.808;9.476;2022-11-03T09:49:17;9.00;99.90
20045;DHT22;10183;47.808;9.476;2022-11-03T09:51:45;8.20;99.90
20045;DHT22;10183;47.808;9.476;2022-11-03T09:54:13;8.20;99.90
20045;DHT22;10183;47.808;9.476;2022-11-03T09:56:41;8.10;99.90
20045;DHT22;10183;47.808;9.476;2022-11-03T09:59:19;8.10;99.90
20045;DHT22;10183;47.808;9.476;2022-11-03T10:01:48;8.50;99.90
20045;DHT22;10183;47.808;9.476;2022-11-03T10:04:25;8.90;99.90
20045;DHT22;10183;47.808;9.476;2022-11-03T10:06:54;9.00;99.90
20045;DHT22;10183;47.808;9.476;2022-11-03T10:09:20;8.70;99.90
20045;DHT22;10183;47.808;9.476;2022-11-03T10:11:48;8.60;99.90
20045;DHT22;10183;47.808;9.476;2022-11-03T10:14:17;8.40;99.90
20045;DHT22;10183;47.808;9.476;2022-11-03T10:16:55;8.70;99.90
20045;DHT22;10183;47.808;9.476;2022-11-03T10:19:23;8.60;99.90
20045;DHT22;10183;47.808;9.476;2022-11-03T10:21:50;8.40;99.90
20045;DHT22;10183;47.808;9.476;2022-11-03T10:24:16;8.20;99.90
20045;DHT22;10183;47.808;9.476;2022-11-03T10:26:47;8.20;99.90
20045;DHT22;10183;47.808;9.476;2022-11-03T10:29:22;8.50;99.90
20045;DHT22;10183;47.808;9.476;2022-11-03T10:31:53;8.40;99.90
20045;DHT22;10183;47.808;9.476;2022-11-03T10:36:49;8.40;99.90
20045;DHT22;10183;47.808;9.476;2022-11-03T10:39:27;8.60;99.90
20045;DHT22;10183;47.808;9.476;2022-11-03T10:41:56;8.80;99.90
20045;DHT22;10183;47.808;9.476;2022-11-03T10:44:25;9.00;99.90
20045;DHT22;10183;47.808;9.476;2022-11-03T10:47:03;9.10;99.90
20045;DHT22;10183;47.808;9.476;2022-11-03T10:49:31;8.80;99.90
20045;DHT22;10183;47.808;9.476;2022-11-03T10:52:20;8.50;99.90
20045;DHT22;10183;47.808;9.476;2022-11-03T10:54:48;8.70;99.90
20045;DHT22;10183;47.808;9.476;2022-11-03T10:57:16;8.70;99.90
20045;DHT22;10183;47.808;9.476;2022-11-03T10:59:44;8.60;99.90
20045;DHT22;10183;47.808;9.476;2022-11-03T11:02:22;8.70;99.90
20045;DHT22;10183;47.808;9.476;2022-11-03T11:04:55;8.50;99.90
20045;DHT22;10183;47.808;9.476;2022-11-03T11:07:35;8.40;99.90
20045;DHT22;10183;47.808;9.476;2022-11-03T11:12:37;8.30;99.90
20045;DHT22;10183;47.808;9.476;2022-11-03T11:18:01;8.30;99.90
20045;DHT22;10183;47.808;9.476;2022-11-03T11:20:31;8.30;99.90
20045;DHT22;10183;47.808;9.476;2022-11-03T11:36:44;8.90;99.90
20045;DHT22;10183;47.808;9.476;2022-11-03T11:47:21;8.80;99.90
20045;DHT22;10183;47.808;9.476;2022-11-03T11:50:33;8.80;99.90
20045;DHT22;10183;47.808;9.476;2022-11-03T11:58:11;8.90;99.90
20045;DHT22;10183;47.808;9.476;2022-11-03T12:00:50;8.90;99.90
20045;DHT22;10183;47.808;9.476;2022-11-03T12:03:30;8.70;99.90
20045;DHT22;10183;47.808;9.476;2022-11-03T12:05:57;8.90;99.90
20045;DHT22;10183;47.808;9.476;2022-11-03T12:08:26;8.80;99.90
20045;DHT22;10183;47.808;9.476;2022-11-03T12:11:01;9.00;99.90
20045;DHT22;10183;47.808;9.476;2022-11-03T12:13:42;9.00;99.90
20045;DHT22;10183;47.808;9.476;2022-11-03T12:16:31;9.20;99.90
20045;DHT22;10183;47.808;9.476;2022-11-03T12:22:07;8.80;99.90
20045;DHT22;10183;47.808;9.476;2022-11-03T12:24:45;8.80;99.90
20045;DHT22;10183;47.808;9.476;2022-11-03T12:27:18;8.90;99.90
20045;DHT22;10183;47.808;9.476;2022-11-03T12:29:44;8.80;99.90
20045;DHT22;10183;47.808;9.476;2022-11-03T12:32:10;8.80;99.90
20045;DHT22;10183;47.808;9.476;2022-11-03T12:34:37;9.20;99.90
20045;DHT22;10183;47.808;9.476;2022-11-03T12:37:03;9.50;99.90
20045;DHT22;10183;47.808;9.476;2022-11-03T12:39:29;9.50;99.90
20045;DHT22;10183;47.808;9.476;2022-11-03T12:41:55;9.40;99.90
20045;DHT22;10183;47.808;9.476;2022-11-03T12:44:21;9.30;99.90
20045;DHT22;10183;47.808;9.476;2022-11-03T12:46:48;9.30;99.90
20045;DHT22;10183;47.808;9.476;2022-11-03T12:49:14;9.40;99.90
20045;DHT22;10183;47.808;9.476;2022-11-03T12:51:40;9.30;99.90
20045;DHT22;10183;47.808;9.476;2022-11-03T12:54:06;9.20;99.90
20045;DHT22;10183;47.808;9.476;2022-11-03T12:56:32;9.20;99.90
20045;DHT22;10183;47.808;9.476;2022-11-03T12:58:59;9.30;99.90
20045;DHT22;10183;47.808;9.476;2022-11-03T13:01:25;9.40;99.90
20045;DHT22;10183;47.808;9.476;2022-11-03T13:03:51;9.50;99.90
20045;DHT22;10183;47.808;9.476;2022-11-03T13:06:18;9.10;99.90
20045;DHT22;10183;47.808;9.476;2022-11-03T13:08:44;9.20;99.90
20045;DHT22;10183;47.808;9.476;2022-11-03T13:11:11;9.10;99.90
20045;DHT22;10183;47.808;9.476;2022-11-03T13:13:56;8.90;99.90
20045;DHT22;10183;47.808;9.476;2022-11-03T13:16:22;9.10;99.90
20045;DHT22;10183;47.808;9.476;2022-11-03T13:18:48;9.10;99.90
20045;DHT22;10183;47.808;9.476;2022-11-03T13:21:15;8.90;99.90
20045;DHT22;10183;47.808;9.476;2022-11-03T13:23:41;8.90;99.90
20045;DHT22;10183;47.808;9.476;2022-11-03T13:26:07;9.00;99.90
20045;DHT22;10183;47.808;9.476;2022-11-03T13:28:34;9.20;99.90
20045;DHT22;10183;47.808;9.476;2022-11-03T13:31:00;9.30;99.90
20045;DHT22;10183;47.808;9.476;2022-11-03T13:33:26;9.30;99.90
20045;DHT22;10183;47.808;9.476;2022-11-03T13:35:52;9.40;99.90
20045;DHT22;10183;47.808;9.476;2022-11-03T13:38:19;9.10;99.90
20045;DHT22;10183;47.808;9.476;2022-11-03T13:40:46;9.20;99.90
20045;DHT22;10183;47.808;9.476;2022-11-03T13:43:12;9.40;99.90
20045;DHT22;10183;47.808;9.476;2022-11-03T13:45:38;9.20;99.90
20045;DHT22;10183;47.808;9.476;2022-11-03T13:48:05;9.10;99.90
20045;DHT22;10183;47.808;9.476;2022-11-03T13:50:31;9.00;99.90
20045;DHT22;10183;47.808;9.476;2022-11-03T13:52:57;8.90;99.90
20045;DHT22;10183;47.808;9.476;2022-11-03T13:55:23;9.00;99.90
20045;DHT22;10183;47.808;9.476;2022-11-03T13:57:49;9.00;99.90
20045;DHT22;10183;47.808;9.476;2022-11-03T14:00:16;9.00;99.90
20045;DHT22;10183;47.808;9.476;2022-11-03T14:02:42;9.10;99.90
20045;DHT22;10183;47.808;9.476;2022-11-03T14:05:09;9.20;99.90
20045;DHT22;10183;47.808;9.476;2022-11-03T14:07:36;9.30;99.90
20045;DHT22;10183;47.808;9.476;2022-11-03T14:10:03;9.30;99.90
20045;DHT22;10183;47.808;9.476;2022-11-03T14:12:29;9.20;99.90
20045;DHT22;10183;47.808;9.476;2022-11-03T14:15:10;8.90;99.90
20045;DHT22;10183;47.808;9.476;2022-11-03T14:17:37;8.60;99.90
20045;DHT22;10183;47.808;9.476;2022-11-03T14:20:06;8.70;99.90
20045;DHT22;10183;47.808;9.476;2022-11-03T14:22:34;8.80;99.90
20045;DHT22;10183;47.808;9.476;2022-11-03T14:25:01;8.80;99.90
20045;DHT22;10183;47.808;9.476;2022-11-03T14:27:30;8.70;99.90
20045;DHT22;10183;47.808;9.476;2022-11-03T14:29:57;8.70;99.90
20045;DHT22;10183;47.808;9.476;2022-11-03T14:32:23;8.70;99.90
20045;DHT22;10183;47.808;9.476;2022-11-03T14:34:50;8.70;99.90
20045;DHT22;10183;47.808;9.476;2022-11-03T14:37:16;8.70;99.90
20045;DHT22;10183;47.808;9.476;2022-11-03T14:39:44;8.70;99.90
20045;DHT22;10183;47.808;9.476;2022-11-03T14:42:12;8.70;99.90
20045;DHT22;10183;47.808;9.476;2022-11-03T14:44:43;8.70;99.90
20045;DHT22;10183;47.808;9.476;2022-11-03T14:47:11;8.70;99.90
20045;DHT22;10183;47.808;9.476;2022-11-03T14:49:38;8.80;99.90
20045;DHT22;10183;47.808;9.476;2022-11-03T14:52:06;8.90;99.90
20045;DHT22;10183;47.808;9.476;2022-11-03T14:54:32;9.00;99.90
20045;DHT22;10183;47.808;9.476;2022-11-03T14:56:59;9.00;99.90
20045;DHT22;10183;47.808;9.476;2022-11-03T14:59:25;9.00;99.90
20045;DHT22;10183;47.808;9.476;2022-11-03T15:01:52;9.10;99.90
20045;DHT22;10183;47.808;9.476;2022-11-03T15:04:19;9.10;99.90
20045;DHT22;10183;47.808;9.476;2022-11-03T15:06:46;9.10;99.90
20045;DHT22;10183;47.808;9.476;2022-11-03T15:09:13;9.00;99.90
20045;DHT22;10183;47.808;9.476;2022-11-03T15:11:40;9.00;99.90
20045;DHT22;10183;47.808;9.476;2022-11-03T15:14:07;9.00;99.90
20045;DHT22;10183;47.808;9.476;2022-11-03T15:16:33;8.90;99.90
20045;DHT22;10183;47.808;9.476;2022-11-03T15:19:01;9.00;99.90
20045;DHT22;10183;47.808;9.476;2022-11-03T15:21:31;9.00;99.90
20045;DHT22;10183;47.808;9.476;2022-11-03T15:23:57;8.90;99.90
20045;DHT22;10183;47.808;9.476;2022-11-03T15:26:24;8.80;99.90
20045;DHT22;10183;47.808;9.476;2022-11-03T15:28:50;8.90;99.90
20045;DHT22;10183;47.808;9.476;2022-11-03T15:31:17;8.80;99.90
20045;DHT22;10183;47.808;9.476;2022-11-03T15:33:43;8.80;99.90
20045;DHT22;10183;47.808;9.476;2022-11-03T15:36:09;8.80;99.90
20045;DHT22;10183;47.808;9.476;2022-11-03T15:38:35;8.50;99.90
20045;DHT22;10183;47.808;9.476;2022-11-03T15:41:01;8.50;99.90
20045;DHT22;10183;47.808;9.476;2022-11-03T15:43:48;8.50;99.90
20045;DHT22;10183;47.808;9.476;2022-11-03T15:46:16;8.50;99.90
20045;DHT22;10183;47.808;9.476;2022-11-03T15:48:43;8.50;99.90
20045;DHT22;10183;47.808;9.476;2022-11-03T15:51:10;8.50;99.90
20045;DHT22;10183;47.808;9.476;2022-11-03T15:53:37;8.50;99.90
20045;DHT22;10183;47.808;9.476;2022-11-03T15:56:05;8.60;99.90
20045;DHT22;10183;47.808;9.476;2022-11-03T15:58:31;8.50;99.90
20045;DHT22;10183;47.808;9.476;2022-11-03T16:01:00;8.50;99.90
20045;DHT22;10183;47.808;9.476;2022-11-03T16:03:27;8.50;99.90
20045;DHT22;10183;47.808;9.476;2022-11-03T16:05:54;8.40;99.90
20045;DHT22;10183;47.808;9.476;2022-11-03T16:08:21;8.30;99.90
20045;DHT22;10183;47.808;9.476;2022-11-03T16:10:47;8.30;99.90
20045;DHT22;10183;47.808;9.476;2022-11-03T16:13:14;8.20;99.90
20045;DHT22;10183;47.808;9.476;2022-11-03T16:15:40;8.30;99.90
20045;DHT22;10183;47.808;9.476;2022-11-03T16:18:08;8.30;99.90
20045;DHT22;10183;47.808;9.476;2022-11-03T16:20:35;8.40;99.90
20045;DHT22;10183;47.808;9.476;2022-11-03T16:23:01;8.40;99.90
20045;DHT22;10183;47.808;9.476;2022-11-03T16:25:27;8.40;99.90
20045;DHT22;10183;47.808;9.476;2022-11-03T16:27:54;8.40;99.90
20045;DHT22;10183;47.808;9.476;2022-11-03T16:30:20;8.40;99.90
20045;DHT22;10183;47.808;9.476;2022-11-03T16:32:47;8.40;99.90
20045;DHT22;10183;47.808;9.476;2022-11-03T16:35:13;8.40;99.90
20045;DHT22;10183;47.808;9.476;2022-11-03T16:37:40;8.50;99.90
20045;DHT22;10183;47.808;9.476;2022-11-03T16:40:06;8.50;99.90
20045;DHT22;10183;47.808;9.476;2022-11-03T16:42:32;8.50;99.90
20045;DHT22;10183;47.808;9.476;2022-11-03T16:45:13;8.50;99.90
20045;DHT22;10183;47.808;9.476;2022-11-03T16:47:39;8.50;99.90
20045;DHT22;10183;47.808;9.476;2022-11-03T16:50:09;8.40;99.90
20045;DHT22;10183;47.808;9.476;2022-11-03T16:52:40;8.30;99.90
20045;DHT22;10183;47.808;9.476;2022-11-03T16:55:07;8.30;99.90
20045;DHT22;10183;47.808;9.476;2022-11-03T16:57:38;8.30;99.90
20045;DHT22;10183;47.808;9.476;2022-11-03T17:00:06;8.40;99.90
20045;DHT22;10183;47.808;9.476;2022-11-03T17:02:33;8.40;99.90
20045;DHT22;10183;47.808;9.476;2022-11-03T17:05:00;8.40;99.90
20045;DHT22;10183;47.808;9.476;2022-11-03T17:07:26;8.40;99.90
20045;DHT22;10183;47.808;9.476;2022-11-03T17:09:53;8.40;99.90
20045;DHT22;10183;47.808;9.476;2022-11-03T17:12:19;8.40;99.90
20045;DHT22;10183;47.808;9.476;2022-11-03T17:14:46;8.40;99.90
20045;DHT22;10183;47.808;9.476;2022-11-03T17:17:12;8.40;99.90
20045;DHT22;10183;47.808;9.476;2022-11-03T17:19:39;8.40;99.90